createdAt,value
2022-10-18T00:02:08.801Z,98592.50
2022-10-18T00:04:39.068Z,98590.91
2022-10-18T00:07:07.572Z,98590.16
2022-10-18T00:09:36.075Z,98588.38
2022-10-18T00:12:04.994Z,98583.16
2022-10-18T00:14:33.463Z,98578.34
2022-10-18T00:17:01.879Z,98582.81
2022-10-18T00:19:30.331Z,98582.22
2022-10-18T00:22:00.202Z,98579.78
2022-10-18T00:24:28.655Z,98585.25
2022-10-18T00:26:57.286Z,98587.25
2022-10-18T00:29:25.774Z,98582.66
2022-10-18T00:31:54.241Z,98576.00
2022-10-18T00:34:22.679Z,98576.72
2022-10-18T00:36:51.257Z,98578.50
2022-10-18T00:39:22.664Z,98578.78
2022-10-18T00:41:51.595Z,98583.00
2022-10-18T00:44:57.658Z,98583.03
2022-10-18T00:47:27.480Z,98592.88
2022-10-18T00:49:59.534Z,98585.94
2022-10-18T00:52:33.354Z,98591.69
2022-10-18T00:55:04.224Z,98590.03
2022-10-18T00:57:33.320Z,98595.03
2022-10-18T01:00:02.091Z,98593.28
2022-10-18T01:02:33.598Z,98592.50
2022-10-18T01:05:02.202Z,98590.91
2022-10-18T01:07:44.437Z,98591.88
2022-10-18T01:10:27.781Z,98590.34
2022-10-18T01:13:11.885Z,98591.19
2022-10-18T01:15:51.143Z,98602.06
2022-10-18T01:18:26.568Z,98602.94
2022-10-18T01:21:27.800Z,98593.56
2022-10-18T01:24:37.201Z,98594.28
2022-10-18T01:27:28.593Z,98599.63
2022-10-18T01:30:20.923Z,98600.44
2022-10-18T01:32:52.957Z,98599.31
2022-10-18T01:35:28.724Z,98596.59
2022-10-18T01:38:01.246Z,98592.13
2022-10-18T01:40:31.901Z,98596.31
2022-10-18T01:43:01.724Z,98596.16
2022-10-18T01:45:33.068Z,98596.66
2022-10-18T01:48:03.064Z,98600.50
2022-10-18T01:50:32.797Z,98595.88
2022-10-18T01:53:01.578Z,98588.84
2022-10-18T01:55:43.594Z,98590.56
2022-10-18T01:58:23.555Z,98590.28
2022-10-18T02:01:04.004Z,98587.75
2022-10-18T02:03:35.082Z,98588.50
2022-10-18T02:06:09.457Z,98590.13
2022-10-18T02:08:43.756Z,98594.25
2022-10-18T02:11:15.015Z,98597.47
2022-10-18T02:13:47.344Z,98596.72
2022-10-18T02:16:20.824Z,98599.22
2022-10-18T02:18:53.038Z,98601.88
2022-10-18T02:21:23.554Z,98587.13
2022-10-18T02:23:53.453Z,98586.41
2022-10-18T02:26:21.891Z,98594.16
2022-10-18T02:28:50.513Z,98595.69
2022-10-18T02:31:27.245Z,98586.75
2022-10-18T02:33:59.561Z,98582.28
2022-10-18T02:36:32.574Z,98578.75
2022-10-18T02:39:05.612Z,98572.59
2022-10-18T02:41:34.721Z,98565.59
2022-10-18T02:44:03.146Z,98575.94
2022-10-18T02:46:33.021Z,98571.53
2022-10-18T02:49:01.500Z,98568.75
2022-10-18T02:51:29.896Z,98565.38
2022-10-18T02:53:58.355Z,98567.13
2022-10-18T02:56:26.771Z,98556.66
2022-10-18T02:58:55.174Z,98550.44
2022-10-18T03:01:23.715Z,98558.09
2022-10-18T03:03:53.801Z,98565.00
2022-10-18T03:06:22.234Z,98569.13
2022-10-18T03:08:50.674Z,98573.53
2022-10-18T03:11:19.079Z,98573.41
2022-10-18T03:13:47.552Z,98566.44
2022-10-18T03:16:16.078Z,98574.09
2022-10-18T03:18:44.895Z,98565.56
2022-10-18T03:21:14.823Z,98568.91
2022-10-18T03:23:43.626Z,98564.50
2022-10-18T03:26:12.061Z,98557.69
2022-10-18T03:28:40.550Z,98558.38
2022-10-18T03:31:09.139Z,98557.41
2022-10-18T03:33:37.665Z,98557.41
2022-10-18T03:36:06.425Z,98558.31
2022-10-18T03:38:36.198Z,98559.81
2022-10-18T03:41:04.480Z,98556.41
2022-10-18T03:43:32.774Z,98556.47
2022-10-18T03:46:01.481Z,98555.56
2022-10-18T03:48:30.064Z,98550.31
2022-10-18T03:50:58.599Z,98553.19
2022-10-18T03:53:27.106Z,98555.03
2022-10-18T03:55:57.253Z,98557.53
2022-10-18T03:58:25.722Z,98567.22
2022-10-18T04:00:55.756Z,98571.31
2022-10-18T04:03:24.587Z,98575.66
2022-10-18T04:05:53.014Z,98569.81
2022-10-18T04:08:21.501Z,98576.00
2022-10-18T04:10:49.946Z,98578.31
2022-10-18T04:13:19.809Z,98584.56
2022-10-18T04:15:48.258Z,98583.59
2022-10-18T04:18:16.728Z,98578.13
2022-10-18T04:20:45.150Z,98586.00
2022-10-18T04:23:13.608Z,98572.00
2022-10-18T04:28:15.422Z,98569.13
2022-10-18T04:30:45.249Z,98581.16
2022-10-18T04:33:13.672Z,98574.16
2022-10-18T04:35:42.084Z,98571.69
2022-10-18T04:38:10.621Z,98576.66
2022-10-18T04:40:39.103Z,98572.31
2022-10-18T04:43:07.561Z,98574.06
2022-10-18T04:45:36.137Z,98572.91
2022-10-18T04:48:06.582Z,98581.53
2022-10-18T04:50:35.052Z,98585.06
2022-10-18T04:53:15.543Z,98583.16
2022-10-18T04:55:45.196Z,98571.84
2022-10-18T04:58:13.846Z,98579.72
2022-10-18T05:00:43.433Z,98581.44
2022-10-18T05:03:15.112Z,98586.72
2022-10-18T05:06:02.717Z,98590.75
2022-10-18T05:08:32.551Z,98592.75
2022-10-18T05:11:01.880Z,98578.09
2022-10-18T05:13:31.102Z,98586.03
2022-10-18T05:16:00.660Z,98578.78
2022-10-18T05:18:30.674Z,98570.03
2022-10-18T05:20:59.785Z,98580.38
2022-10-18T05:23:28.183Z,98582.22
2022-10-18T05:25:56.641Z,98584.97
2022-10-18T05:28:41.482Z,98572.63
2022-10-18T05:31:12.166Z,98571.47
2022-10-18T05:33:41.959Z,98569.72
2022-10-18T05:36:11.087Z,98570.47
2022-10-18T05:38:43.125Z,98573.16
2022-10-18T05:41:12.410Z,98570.66
2022-10-18T05:43:41.585Z,98569.13
2022-10-18T05:46:14.555Z,98570.66
2022-10-18T05:48:45.782Z,98569.94
2022-10-18T05:51:14.204Z,98571.84
2022-10-18T05:53:42.745Z,98581.94
2022-10-18T05:56:12.339Z,98579.13
2022-10-18T05:58:41.999Z,98589.47
2022-10-18T06:01:11.089Z,98579.13
2022-10-18T06:03:39.516Z,98591.22
2022-10-18T06:06:10.860Z,98581.72
2022-10-18T06:08:40.785Z,98576.56
2022-10-18T06:11:10.345Z,98574.16
2022-10-18T06:13:41.426Z,98571.34
2022-10-18T06:16:10.593Z,98571.66
2022-10-18T06:18:39.521Z,98574.47
2022-10-18T06:21:10.239Z,98584.50
2022-10-18T06:23:38.697Z,98588.75
2022-10-18T06:26:08.534Z,98595.00
2022-10-18T06:28:37.701Z,98588.31
2022-10-18T06:31:07.158Z,98594.25
2022-10-18T06:33:36.623Z,98586.44
2022-10-18T06:36:06.977Z,98601.78
2022-10-18T06:38:36.848Z,98595.63
2022-10-18T06:41:06.470Z,98597.47
2022-10-18T06:43:34.918Z,98604.31
2022-10-18T06:46:06.800Z,98602.78
2022-10-18T06:48:35.971Z,98599.50
2022-10-18T06:51:06.608Z,98605.44
2022-10-18T06:53:44.073Z,98608.97
2022-10-18T06:56:17.220Z,98617.34
2022-10-18T06:58:45.651Z,98613.59
2022-10-18T07:01:16.631Z,98616.88
2022-10-18T07:03:46.653Z,98626.16
2022-10-18T07:06:18.945Z,98626.72
2022-10-18T07:08:50.158Z,98628.88
2022-10-18T07:11:20.394Z,98626.66
2022-10-18T07:13:48.776Z,98629.44
2022-10-18T07:16:18.965Z,98628.06
2022-10-18T07:18:50.245Z,98635.13
2022-10-18T07:21:20.529Z,98622.28
2022-10-18T07:23:51.732Z,98622.16
2022-10-18T07:26:22.390Z,98621.94
2022-10-18T07:28:54.480Z,98626.03
2022-10-18T07:31:23.972Z,98626.53
2022-10-18T07:33:52.733Z,98623.16
2022-10-18T07:36:22.190Z,98620.31
2022-10-18T07:38:52.893Z,98616.00
2022-10-18T07:41:21.732Z,98619.94
2022-10-18T07:43:52.152Z,98614.06
2022-10-18T07:46:22.282Z,98615.91
2022-10-18T07:48:51.132Z,98616.59
2022-10-18T07:51:20.544Z,98625.13
2022-10-18T07:53:49.202Z,98616.38
2022-10-18T07:56:21.637Z,98615.16
2022-10-18T07:58:52.319Z,98624.50
2022-10-18T08:01:22.260Z,98620.69
2022-10-18T08:03:51.761Z,98612.50
2022-10-18T08:06:22.539Z,98609.59
2022-10-18T08:08:51.202Z,98599.34
2022-10-18T08:11:22.985Z,98608.75
2022-10-18T08:13:51.786Z,98610.84
2022-10-18T08:16:21.980Z,98620.69
2022-10-18T08:18:51.246Z,98617.44
2022-10-18T08:21:21.494Z,98613.75
2022-10-18T08:23:50.215Z,98613.63
2022-10-18T08:26:22.032Z,98624.41
2022-10-18T08:28:58.385Z,98618.84
2022-10-18T08:31:38.345Z,98616.50
2022-10-18T08:34:06.784Z,98616.56
2022-10-18T08:36:35.208Z,98612.41
2022-10-18T08:39:03.905Z,98614.81
2022-10-18T08:41:52.671Z,98619.13
2022-10-18T08:44:23.891Z,98617.94
2022-10-18T08:46:56.773Z,98623.75
2022-10-18T08:49:29.265Z,98629.13
2022-10-18T08:51:59.046Z,98627.13
2022-10-18T08:54:34.041Z,98635.56
2022-10-18T08:57:08.011Z,98641.94
2022-10-18T08:59:40.402Z,98635.75
2022-10-18T09:02:27.253Z,98637.06
2022-10-18T09:05:04.281Z,98631.97
2022-10-18T09:07:59.033Z,98631.41
2022-10-18T09:10:40.424Z,98639.34
2022-10-18T09:13:28.570Z,98625.56
2022-10-18T09:15:59.756Z,98634.34
2022-10-18T09:18:45.147Z,98632.44
2022-10-18T09:21:20.241Z,98635.06
2022-10-18T09:23:51.112Z,98627.69
2022-10-18T09:26:21.910Z,98623.34
2022-10-18T09:29:09.708Z,98631.03
2022-10-18T09:31:43.589Z,98629.94
2022-10-18T09:34:16.060Z,98626.69
2022-10-18T09:36:45.602Z,98628.72
2022-10-18T09:39:16.192Z,98630.25
2022-10-18T09:41:50.634Z,98633.88
2022-10-18T09:44:25.089Z,98627.88
2022-10-18T09:46:58.663Z,98628.84
2022-10-18T09:49:31.088Z,98627.69
2022-10-18T09:52:03.124Z,98636.06
2022-10-18T09:54:34.962Z,98638.53
2022-10-18T09:57:06.136Z,98633.13
2022-10-18T09:59:42.149Z,98629.47
2022-10-18T10:02:14.581Z,98629.53
2022-10-18T10:04:43.129Z,98638.63
2022-10-18T10:07:15.962Z,98641.22
2022-10-18T10:09:47.563Z,98634.25
2022-10-18T10:12:32.092Z,98635.19
2022-10-18T10:15:19.430Z,98637.97
2022-10-18T10:17:56.108Z,98649.03
2022-10-18T10:20:28.358Z,98646.97
2022-10-18T10:23:07.536Z,98646.41
2022-10-18T10:25:38.647Z,98638.06
2022-10-18T10:28:14.046Z,98646.19
2022-10-18T10:30:43.939Z,98640.38
2022-10-18T10:33:34.596Z,98641.78
2022-10-18T10:36:06.853Z,98631.50
2022-10-18T10:38:35.342Z,98639.50
2022-10-18T10:41:03.875Z,98639.94
2022-10-18T10:43:39.380Z,98640.69
2022-10-18T10:46:13.074Z,98639.72
2022-10-18T10:48:48.281Z,98641.91
2022-10-18T10:51:19.816Z,98637.34
2022-10-18T10:53:52.350Z,98636.66
2022-10-18T10:56:26.778Z,98626.94
2022-10-18T10:58:59.025Z,98625.50
2022-10-18T11:01:32.334Z,98624.19
2022-10-18T11:04:04.373Z,98622.28
2022-10-18T11:06:45.922Z,98625.66
2022-10-18T11:09:42.848Z,98625.38
2022-10-18T11:12:27.735Z,98622.41
2022-10-18T11:15:09.834Z,98618.78
2022-10-18T11:17:44.951Z,98609.97
2022-10-18T11:20:22.322Z,98605.06
2022-10-18T11:23:01.144Z,98608.84
2022-10-18T11:25:42.576Z,98613.34
2022-10-18T11:28:17.387Z,98615.09
2022-10-18T11:30:59.862Z,98615.31
2022-10-18T11:34:07.046Z,98614.53
2022-10-18T11:36:36.817Z,98613.66
2022-10-18T11:39:14.683Z,98611.53
2022-10-18T11:41:52.032Z,98611.13
2022-10-18T11:44:28.997Z,98609.91
2022-10-18T11:47:06.604Z,98612.84
2022-10-18T11:49:56.247Z,98608.00
2022-10-18T11:52:32.845Z,98598.84
2022-10-18T11:55:11.876Z,98595.28
2022-10-18T11:57:58.561Z,98592.31
2022-10-18T12:00:39.466Z,98595.97
2022-10-18T12:03:31.302Z,98593.22
2022-10-18T12:06:05.301Z,98592.06
2022-10-18T12:08:37.514Z,98595.41
2022-10-18T12:11:11.241Z,98601.81
2022-10-18T12:13:45.686Z,98604.97
2022-10-18T12:16:15.117Z,98599.66
2022-10-18T12:18:50.767Z,98602.88
2022-10-18T12:21:25.737Z,98599.25
2022-10-18T12:23:59.461Z,98598.34
2022-10-18T12:26:29.316Z,98597.94
2022-10-18T12:29:08.573Z,98591.75
2022-10-18T12:31:43.542Z,98592.97
2022-10-18T12:34:30.067Z,98597.28
2022-10-18T12:37:21.800Z,98590.72
2022-10-18T12:40:13.196Z,98594.13
2022-10-18T12:42:45.249Z,98587.41
2022-10-18T12:45:30.070Z,98582.78
2022-10-18T12:48:00.946Z,98579.13
2022-10-18T12:50:33.849Z,98576.66
2022-10-18T12:53:08.173Z,98575.94
2022-10-18T12:55:38.971Z,98574.41
2022-10-18T12:58:26.005Z,98570.25
2022-10-18T13:00:57.313Z,98572.25
2022-10-18T13:03:54.518Z,98564.97
2022-10-18T13:06:24.507Z,98562.88
2022-10-18T13:09:21.983Z,98562.66
2022-10-18T13:11:51.943Z,98555.63
2022-10-18T13:14:44.194Z,98565.34
2022-10-18T13:17:31.622Z,98565.16
2022-10-18T13:20:25.946Z,98567.00
2022-10-18T13:23:08.784Z,98567.13
2022-10-18T13:25:53.412Z,98575.72
2022-10-18T13:28:31.837Z,98578.91
2022-10-18T13:31:09.590Z,98569.63
2022-10-18T13:33:41.843Z,98572.06
2022-10-18T13:36:23.589Z,98563.63
2022-10-18T13:39:05.825Z,98562.56
2022-10-18T13:42:25.237Z,98568.78
2022-10-18T13:44:55.154Z,98576.53
2022-10-18T13:47:39.293Z,98579.16
2022-10-18T13:50:34.454Z,98589.78
2022-10-18T13:53:41.642Z,98585.78
2022-10-18T13:56:31.530Z,98579.66
2022-10-18T13:59:16.853Z,98580.25
2022-10-18T14:02:02.837Z,98584.72
2022-10-18T14:04:43.461Z,98586.66
2022-10-18T14:07:12.974Z,98587.94
2022-10-18T14:09:48.846Z,98593.19
2022-10-18T14:12:27.617Z,98600.47
2022-10-18T14:15:00.751Z,98597.25
2022-10-18T14:20:29.319Z,98595.28
2022-10-18T14:23:04.083Z,98588.88
2022-10-18T14:25:35.728Z,98593.03
2022-10-18T14:28:14.395Z,98597.22
2022-10-18T14:30:54.773Z,98599.88
2022-10-18T14:33:31.210Z,98599.22
2022-10-18T14:36:02.362Z,98600.16
2022-10-18T14:38:30.987Z,98606.81
2022-10-18T14:41:15.429Z,98611.25
2022-10-18T14:43:44.389Z,98607.84
2022-10-18T14:46:21.997Z,98603.88
2022-10-18T14:48:57.269Z,98609.38
2022-10-18T14:51:26.624Z,98610.53
2022-10-18T14:53:55.872Z,98609.34
2022-10-18T14:56:28.493Z,98605.63
2022-10-18T14:58:58.500Z,98609.84
2022-10-18T15:01:30.745Z,98614.72
2022-10-18T15:04:04.906Z,98617.84
2022-10-18T15:06:33.876Z,98611.78
2022-10-18T15:09:04.965Z,98608.84
2022-10-18T15:11:34.109Z,98611.38
2022-10-18T15:14:06.718Z,98617.59
2022-10-18T15:16:38.538Z,98612.84
2022-10-18T15:19:29.353Z,98612.34
2022-10-18T15:25:23.304Z,98609.03
2022-10-18T15:27:54.250Z,98608.97
2022-10-18T15:30:27.609Z,98606.22
2022-10-18T15:32:57.960Z,98606.44
2022-10-18T15:35:31.268Z,98602.41
2022-10-18T15:38:02.411Z,98607.56
2022-10-18T15:40:38.894Z,98599.56
2022-10-18T15:43:34.935Z,98610.19
2022-10-18T15:46:06.735Z,98604.53
2022-10-18T15:48:39.033Z,98599.56
2022-10-18T15:51:13.609Z,98599.09
2022-10-18T15:53:45.632Z,98605.41
2022-10-18T15:56:29.065Z,98603.41
2022-10-18T15:58:59.199Z,98598.97
2022-10-18T16:01:37.279Z,98608.03
2022-10-18T16:04:18.124Z,98605.78
2022-10-18T16:06:47.985Z,98610.19
2022-10-18T16:09:18.869Z,98609.22
2022-10-18T16:11:54.130Z,98614.69
2022-10-18T16:14:26.477Z,98614.91
2022-10-18T16:16:56.545Z,98615.00
2022-10-18T16:19:24.980Z,98618.16
2022-10-18T16:21:55.814Z,98619.13
2022-10-18T16:24:24.412Z,98616.41
2022-10-18T16:26:54.042Z,98629.72
2022-10-18T16:29:26.152Z,98628.16
2022-10-18T16:31:57.854Z,98624.44
2022-10-18T16:34:27.436Z,98619.53
2022-10-18T16:36:57.030Z,98622.66
2022-10-18T16:39:25.555Z,98624.75
2022-10-18T16:41:53.966Z,98621.41
2022-10-18T16:44:22.400Z,98629.84
2022-10-18T16:46:53.825Z,98634.34
2022-10-18T16:49:25.838Z,98632.28
2022-10-18T16:51:55.154Z,98642.16
2022-10-18T16:54:24.982Z,98649.28
2022-10-18T16:56:53.879Z,98652.94
2022-10-18T16:59:25.159Z,98654.22
2022-10-18T17:01:53.732Z,98650.03
2022-10-18T17:04:22.219Z,98660.09
2022-10-18T17:06:50.723Z,98651.66
2022-10-18T17:09:19.162Z,98653.53
2022-10-18T17:11:48.996Z,98659.91
2022-10-18T17:14:17.550Z,98659.31
2022-10-18T17:16:48.785Z,98661.81
2022-10-18T17:19:21.487Z,98663.69
2022-10-18T17:21:49.919Z,98659.97
2022-10-18T17:24:18.349Z,98661.25
2022-10-18T17:26:50.734Z,98671.69
2022-10-18T17:29:19.137Z,98668.78
2022-10-18T17:31:47.556Z,98661.78
2022-10-18T17:34:21.148Z,98663.38
2022-10-18T17:36:50.081Z,98671.19
2022-10-18T17:39:18.512Z,98666.06
2022-10-18T17:41:46.974Z,98669.94
2022-10-18T17:44:16.905Z,98676.31
2022-10-18T17:46:45.336Z,98672.47
2022-10-18T17:49:15.458Z,98673.72
2022-10-18T17:51:45.406Z,98675.69
2022-10-18T17:54:13.855Z,98681.00
2022-10-18T17:56:42.310Z,98678.41
2022-10-18T17:59:11.045Z,98678.63
2022-10-18T18:01:40.908Z,98676.94
2022-10-18T18:04:09.370Z,98682.38
2022-10-18T18:06:39.362Z,98684.66
2022-10-18T18:09:10.542Z,98688.09
2022-10-18T18:11:41.946Z,98689.16
2022-10-18T18:14:11.075Z,98684.91
2022-10-18T18:16:42.637Z,98685.03
2022-10-18T18:19:12.068Z,98683.44
2022-10-18T18:21:41.411Z,98684.50
2022-10-18T18:24:11.022Z,98681.97
2022-10-18T18:26:40.382Z,98691.78
2022-10-18T18:29:09.060Z,98694.78
2022-10-18T18:31:40.023Z,98686.66
2022-10-18T18:34:12.654Z,98684.69
2022-10-18T18:36:41.452Z,98688.47
2022-10-18T18:39:17.243Z,98678.56
2022-10-18T18:41:45.690Z,98689.34
2022-10-18T18:44:14.183Z,98681.75
2022-10-18T18:46:42.613Z,98686.56
2022-10-18T18:49:12.997Z,98683.59
2022-10-18T18:51:42.445Z,98681.13
2022-10-18T18:54:13.768Z,98692.03
2022-10-18T18:56:43.115Z,98686.34
2022-10-18T18:59:13.871Z,98687.38
2022-10-18T19:01:43.125Z,98683.53
2022-10-18T19:04:12.964Z,98676.56
2022-10-18T19:06:43.497Z,98675.84
2022-10-18T19:09:19.112Z,98676.31
2022-10-18T19:11:49.140Z,98678.44
2022-10-18T19:14:18.017Z,98678.88
2022-10-18T19:16:51.289Z,98676.22
2022-10-18T19:19:22.521Z,98680.84
2022-10-18T19:21:53.281Z,98681.59
2022-10-18T19:24:23.526Z,98670.53
2022-10-18T19:26:53.510Z,98672.19
2022-10-18T19:29:23.754Z,98685.50
2022-10-18T19:31:54.696Z,98689.69
2022-10-18T19:34:27.430Z,98682.72
2022-10-18T19:36:56.361Z,98684.03
2022-10-18T19:39:26.481Z,98677.94
2022-10-18T19:41:57.189Z,98679.78
2022-10-18T19:44:29.065Z,98690.19
2022-10-18T19:46:58.621Z,98686.19
2022-10-18T19:49:28.942Z,98688.06
2022-10-18T19:51:57.684Z,98693.72
2022-10-18T19:54:26.801Z,98690.47
2022-10-18T19:56:55.269Z,98688.97
2022-10-18T19:59:24.646Z,98692.34
2022-10-18T20:01:53.076Z,98699.72
2022-10-18T20:04:21.502Z,98690.09
2022-10-18T20:06:51.839Z,98691.09
2022-10-18T20:09:21.488Z,98697.66
2022-10-18T20:11:49.771Z,98695.72
2022-10-18T20:14:18.278Z,98697.81
2022-10-18T20:16:46.735Z,98701.25
2022-10-18T20:19:15.279Z,98706.53
2022-10-18T20:21:43.751Z,98697.81
2022-10-18T20:24:13.501Z,98694.06
2022-10-18T20:26:43.537Z,98686.75
2022-10-18T20:29:12.295Z,98685.16
2022-10-18T20:31:40.905Z,98697.31
2022-10-18T20:34:12.875Z,98696.81
2022-10-18T20:36:41.436Z,98698.66
2022-10-18T20:39:10.731Z,98695.41
2022-10-18T20:41:41.864Z,98692.28
2022-10-18T20:44:15.871Z,98693.22
2022-10-18T20:46:45.189Z,98691.44
2022-10-18T20:49:16.360Z,98685.78
2022-10-18T20:51:44.816Z,98685.19
2022-10-18T20:54:13.920Z,98690.13
2022-10-18T20:56:43.853Z,98682.66
2022-10-18T20:59:12.238Z,98683.94
2022-10-18T21:01:40.871Z,98690.78
2022-10-18T21:04:11.236Z,98685.19
2022-10-18T21:06:41.462Z,98681.38
2022-10-18T21:09:12.151Z,98686.97
2022-10-18T21:11:42.972Z,98685.97
2022-10-18T21:14:14.864Z,98676.50
2022-10-18T21:16:44.330Z,98689.56
2022-10-18T21:19:14.738Z,98681.28
2022-10-18T21:21:44.844Z,98679.78
2022-10-18T21:24:14.315Z,98672.38
2022-10-18T21:26:42.782Z,98669.88
2022-10-18T21:29:15.225Z,98673.56
2022-10-18T21:31:46.405Z,98672.31
2022-10-18T21:34:17.347Z,98669.31
2022-10-18T21:36:47.724Z,98662.63
2022-10-18T21:39:18.345Z,98668.28
2022-10-18T21:41:47.532Z,98654.75
2022-10-18T21:44:17.819Z,98661.06
2022-10-18T21:46:46.726Z,98664.13
2022-10-18T21:49:15.785Z,98664.28
2022-10-18T21:51:44.415Z,98664.28
2022-10-18T21:54:14.746Z,98659.66
2022-10-18T21:56:43.370Z,98665.69
2022-10-18T21:59:12.503Z,98655.31
2022-10-18T22:01:44.104Z,98650.94
2022-10-18T22:04:21.422Z,98652.66
2022-10-18T22:06:50.670Z,98644.25
2022-10-18T22:09:19.762Z,98646.06
2022-10-18T22:11:51.227Z,98635.03
2022-10-18T22:14:19.714Z,98638.69
2022-10-18T22:16:49.801Z,98637.53
2022-10-18T22:19:18.266Z,98644.25
2022-10-18T22:21:46.677Z,98632.22
2022-10-18T22:24:15.142Z,98632.00
2022-10-18T22:26:44.946Z,98630.06
2022-10-18T22:29:15.439Z,98628.25
2022-10-18T22:31:45.963Z,98631.19
2022-10-18T22:34:18.620Z,98630.03
2022-10-18T22:36:47.129Z,98624.53
2022-10-18T22:39:16.741Z,98624.22
2022-10-18T22:41:46.458Z,98634.34
2022-10-18T22:44:15.658Z,98630.81
2022-10-18T22:46:44.147Z,98625.41
2022-10-18T22:49:13.124Z,98624.09
2022-10-18T22:51:43.067Z,98619.47
2022-10-18T22:54:11.649Z,98613.44
2022-10-18T22:56:40.037Z,98617.22
2022-10-18T22:59:08.669Z,98614.84
2022-10-18T23:01:37.288Z,98615.03
2022-10-18T23:04:05.883Z,98614.59
2022-10-18T23:06:36.054Z,98619.22
2022-10-18T23:09:08.168Z,98620.41
2022-10-18T23:11:37.723Z,98618.16
2022-10-18T23:14:07.415Z,98617.56
2022-10-18T23:16:35.753Z,98614.34
2022-10-18T23:19:04.100Z,98612.25
2022-10-18T23:21:32.391Z,98606.53
2022-10-18T23:24:00.849Z,98605.94
2022-10-18T23:26:30.644Z,98604.34
2022-10-18T23:28:59.260Z,98599.53
2022-10-18T23:31:29.285Z,98598.13
2022-10-18T23:34:01.154Z,98601.94
2022-10-18T23:36:30.060Z,98603.25
2022-10-18T23:38:58.800Z,98609.72
2022-10-18T23:41:27.601Z,98608.97
2022-10-18T23:43:57.560Z,98614.75
2022-10-18T23:46:26.142Z,98615.66
2022-10-18T23:48:54.602Z,98611.56
2022-10-18T23:51:23.070Z,98607.44
2022-10-18T23:53:51.508Z,98610.25
2022-10-18T23:56:19.994Z,98612.22
2022-10-18T23:58:48.436Z,98611.50
